sensor_id;sensor_type;location;lat;lon;timestamp;temperature;humidity
20777;DHT22;10548;47.504;8.248;2023-08-31T00:01:13;14.40;99.90
20777;DHT22;10548;47.504;8.248;2023-08-31T00:03:40;14.60;99.90
20777;DHT22;10548;47.504;8.248;2023-08-31T00:06:08;14.60;99.90
20777;DHT22;10548;47.504;8.248;2023-08-31T00:08:35;14.60;99.90
20777;DHT22;10548;47.504;8.248;2023-08-31T00:11:02;14.50;99.90
20777;DHT22;10548;47.504;8.248;2023-08-31T00:13:29;14.50;99.90
20777;DHT22;10548;47.504;8.248;2023-08-31T00:15:57;14.60;99.90
20777;DHT22;10548;47.504;8.248;2023-08-31T00:18:25;14.60;99.90
20777;DHT22;10548;47.504;8.248;2023-08-31T00:20:53;14.60;99.90
20777;DHT22;10548;47.504;8.248;2023-08-31T00:23:20;14.70;99.90
20777;DHT22;10548;47.504;8.248;2023-08-31T00:25:47;14.60;99.90
20777;DHT22;10548;47.504;8.248;2023-08-31T00:28:15;14.70;99.90
20777;DHT22;10548;47.504;8.248;2023-08-31T00:30:45;14.40;99.90
20777;DHT22;10548;47.504;8.248;2023-08-31T00:33:14;14.30;99.90
20777;DHT22;10548;47.504;8.248;2023-08-31T00:35:41;14.20;99.90
20777;DHT22;10548;47.504;8.248;2023-08-31T00:38:13;14.20;99.90
20777;DHT22;10548;47.504;8.248;2023-08-31T00:40:44;14.30;99.90
20777;DHT22;10548;47.504;8.248;2023-08-31T00:43:14;14.40;99.90
20777;DHT22;10548;47.504;8.248;2023-08-31T00:45:48;14.40;99.90
20777;DHT22;10548;47.504;8.248;2023-08-31T00:48:17;14.40;99.90
20777;DHT22;10548;47.504;8.248;2023-08-31T00:50:45;14.40;99.90
20777;DHT22;10548;47.504;8.248;2023-08-31T00:53:16;14.50;99.90
20777;DHT22;10548;47.504;8.248;2023-08-31T00:55:47;14.70;99.90
20777;DHT22;10548;47.504;8.248;2023-08-31T00:58:14;14.70;99.90
20777;DHT22;10548;47.504;8.248;2023-08-31T01:03:50;14.50;99.90
20777;DHT22;10548;47.504;8.248;2023-08-31T01:07:09;14.40;99.90
20777;DHT22;10548;47.504;8.248;2023-08-31T01:09:45;14.20;99.90
20777;DHT22;10548;47.504;8.248;2023-08-31T01:12:20;14.20;99.90
20777;DHT22;10548;47.504;8.248;2023-08-31T01:15:13;14.20;99.90
20777;DHT22;10548;47.504;8.248;2023-08-31T01:17:45;14.20;99.90
20777;DHT22;10548;47.504;8.248;2023-08-31T01:20:28;14.10;99.90
20777;DHT22;10548;47.504;8.248;2023-08-31T01:23:09;14.20;99.90
20777;DHT22;10548;47.504;8.248;2023-08-31T01:25:37;14.10;99.90
20777;DHT22;10548;47.504;8.248;2023-08-31T01:28:05;14.10;99.90
20777;DHT22;10548;47.504;8.248;2023-08-31T01:30:33;14.10;99.90
20777;DHT22;10548;47.504;8.248;2023-08-31T01:33:01;14.10;99.90
20777;DHT22;10548;47.504;8.248;2023-08-31T01:35:40;14.10;99.90
20777;DHT22;10548;47.504;8.248;2023-08-31T01:38:10;14.10;99.90
20777;DHT22;10548;47.504;8.248;2023-08-31T01:40:56;14.20;99.90
20777;DHT22;10548;47.504;8.248;2023-08-31T01:43:27;14.30;99.90
20777;DHT22;10548;47.504;8.248;2023-08-31T01:45:55;14.40;99.90
20777;DHT22;10548;47.504;8.248;2023-08-31T01:48:23;14.50;99.90
20777;DHT22;10548;47.504;8.248;2023-08-31T01:50:50;14.60;99.90
20777;DHT22;10548;47.504;8.248;2023-08-31T01:53:17;14.60;99.90
20777;DHT22;10548;47.504;8.248;2023-08-31T01:55:44;14.60;99.90
20777;DHT22;10548;47.504;8.248;2023-08-31T01:58:11;14.50;99.90
20777;DHT22;10548;47.504;8.248;2023-08-31T02:00:38;14.60;99.90
20777;DHT22;10548;47.504;8.248;2023-08-31T02:03:06;14.60;99.90
20777;DHT22;10548;47.504;8.248;2023-08-31T02:05:35;14.50;99.90
20777;DHT22;10548;47.504;8.248;2023-08-31T02:08:02;14.50;99.90
20777;DHT22;10548;47.504;8.248;2023-08-31T02:10:29;14.50;99.90
20777;DHT22;10548;47.504;8.248;2023-08-31T02:12:56;14.40;99.90
20777;DHT22;10548;47.504;8.248;2023-08-31T02:15:23;14.40;99.90
20777;DHT22;10548;47.504;8.248;2023-08-31T02:17:51;14.40;99.90
20777;DHT22;10548;47.504;8.248;2023-08-31T02:20:18;14.40;99.90
20777;DHT22;10548;47.504;8.248;2023-08-31T02:22:47;14.40;99.90
20777;DHT22;10548;47.504;8.248;2023-08-31T02:25:15;14.40;99.90
20777;DHT22;10548;47.504;8.248;2023-08-31T02:27:45;14.30;99.90
20777;DHT22;10548;47.504;8.248;2023-08-31T02:30:12;14.30;99.90
20777;DHT22;10548;47.504;8.248;2023-08-31T02:32:40;14.20;99.90
20777;DHT22;10548;47.504;8.248;2023-08-31T02:35:07;14.30;99.90
20777;DHT22;10548;47.504;8.248;2023-08-31T02:37:34;14.30;99.90
20777;DHT22;10548;47.504;8.248;2023-08-31T02:40:01;14.20;99.90
20777;DHT22;10548;47.504;8.248;2023-08-31T02:42:29;14.20;99.90
20777;DHT22;10548;47.504;8.248;2023-08-31T02:44:56;14.20;99.90
20777;DHT22;10548;47.504;8.248;2023-08-31T02:47:23;14.20;99.90
20777;DHT22;10548;47.504;8.248;2023-08-31T02:49:50;14.30;99.90
20777;DHT22;10548;47.504;8.248;2023-08-31T02:52:17;14.20;99.90
20777;DHT22;10548;47.504;8.248;2023-08-31T02:54:44;14.30;99.90
20777;DHT22;10548;47.504;8.248;2023-08-31T02:57:12;14.20;99.90
20777;DHT22;10548;47.504;8.248;2023-08-31T02:59:39;14.20;99.90
20777;DHT22;10548;47.504;8.248;2023-08-31T03:02:07;14.00;99.90
20777;DHT22;10548;47.504;8.248;2023-08-31T03:04:35;13.80;99.90
20777;DHT22;10548;47.504;8.248;2023-08-31T03:07:03;13.80;99.90
20777;DHT22;10548;47.504;8.248;2023-08-31T03:09:32;13.70;99.90
20777;DHT22;10548;47.504;8.248;2023-08-31T03:11:59;13.60;99.90
20777;DHT22;10548;47.504;8.248;2023-08-31T03:14:27;13.60;99.90
20777;DHT22;10548;47.504;8.248;2023-08-31T03:16:56;13.70;99.90
20777;DHT22;10548;47.504;8.248;2023-08-31T03:19:23;13.60;99.90
20777;DHT22;10548;47.504;8.248;2023-08-31T03:21:50;13.60;99.90
20777;DHT22;10548;47.504;8.248;2023-08-31T03:24:17;13.60;99.90
20777;DHT22;10548;47.504;8.248;2023-08-31T03:26:44;13.60;99.90
20777;DHT22;10548;47.504;8.248;2023-08-31T03:29:11;13.50;99.90
20777;DHT22;10548;47.504;8.248;2023-08-31T03:31:39;13.60;99.90
20777;DHT22;10548;47.504;8.248;2023-08-31T03:34:06;13.60;99.90
20777;DHT22;10548;47.504;8.248;2023-08-31T03:36:33;13.50;99.90
20777;DHT22;10548;47.504;8.248;2023-08-31T03:39:01;13.50;99.90
20777;DHT22;10548;47.504;8.248;2023-08-31T03:41:28;13.40;99.90
20777;DHT22;10548;47.504;8.248;2023-08-31T03:43:55;13.50;99.90
20777;DHT22;10548;47.504;8.248;2023-08-31T03:46:23;13.40;99.90
20777;DHT22;10548;47.504;8.248;2023-08-31T03:48:51;13.40;99.90
20777;DHT22;10548;47.504;8.248;2023-08-31T03:51:19;13.40;99.90
20777;DHT22;10548;47.504;8.248;2023-08-31T03:53:46;13.50;99.90
20777;DHT22;10548;47.504;8.248;2023-08-31T03:56:14;13.50;99.90
20777;DHT22;10548;47.504;8.248;2023-08-31T03:58:42;13.50;99.90
20777;DHT22;10548;47.504;8.248;2023-08-31T04:01:09;13.50;99.90
20777;DHT22;10548;47.504;8.248;2023-08-31T04:03:37;13.60;99.90
20777;DHT22;10548;47.504;8.248;2023-08-31T04:06:05;13.60;99.90
20777;DHT22;10548;47.504;8.248;2023-08-31T04:08:32;13.60;99.90
20777;DHT22;10548;47.504;8.248;2023-08-31T04:11:03;13.60;99.90
20777;DHT22;10548;47.504;8.248;2023-08-31T04:13:30;13.60;99.90
20777;DHT22;10548;47.504;8.248;2023-08-31T04:15:57;13.50;99.90
20777;DHT22;10548;47.504;8.248;2023-08-31T04:18:24;13.50;99.90
20777;DHT22;10548;47.504;8.248;2023-08-31T04:20:53;13.40;99.90
20777;DHT22;10548;47.504;8.248;2023-08-31T04:23:20;13.40;99.90
20777;DHT22;10548;47.504;8.248;2023-08-31T04:25:48;13.40;99.90
20777;DHT22;10548;47.504;8.248;2023-08-31T04:28:15;13.40;99.90
20777;DHT22;10548;47.504;8.248;2023-08-31T04:30:42;13.40;99.90
20777;DHT22;10548;47.504;8.248;2023-08-31T04:33:10;13.40;99.90
20777;DHT22;10548;47.504;8.248;2023-08-31T04:35:37;13.40;99.90
20777;DHT22;10548;47.504;8.248;2023-08-31T04:38:05;13.40;99.90
20777;DHT22;10548;47.504;8.248;2023-08-31T04:40:32;13.40;99.90
20777;DHT22;10548;47.504;8.248;2023-08-31T04:42:59;13.50;99.90
20777;DHT22;10548;47.504;8.248;2023-08-31T04:45:27;13.50;99.90
20777;DHT22;10548;47.504;8.248;2023-08-31T04:47:54;13.50;99.90
20777;DHT22;10548;47.504;8.248;2023-08-31T04:50:21;13.50;99.90
20777;DHT22;10548;47.504;8.248;2023-08-31T04:52:48;13.60;99.90
20777;DHT22;10548;47.504;8.248;2023-08-31T04:55:15;13.60;99.90
20777;DHT22;10548;47.504;8.248;2023-08-31T04:57:42;13.60;99.90
20777;DHT22;10548;47.504;8.248;2023-08-31T05:00:10;13.50;99.90
20777;DHT22;10548;47.504;8.248;2023-08-31T05:02:38;13.40;99.90
20777;DHT22;10548;47.504;8.248;2023-08-31T05:05:07;13.30;99.90
20777;DHT22;10548;47.504;8.248;2023-08-31T05:07:34;13.10;99.90
20777;DHT22;10548;47.504;8.248;2023-08-31T05:10:01;13.00;99.90
20777;DHT22;10548;47.504;8.248;2023-08-31T05:12:29;13.00;99.90
20777;DHT22;10548;47.504;8.248;2023-08-31T05:14:56;13.00;99.90
20777;DHT22;10548;47.504;8.248;2023-08-31T05:17:23;13.10;99.90
20777;DHT22;10548;47.504;8.248;2023-08-31T05:19:50;13.10;99.90
20777;DHT22;10548;47.504;8.248;2023-08-31T05:22:17;13.10;99.90
20777;DHT22;10548;47.504;8.248;2023-08-31T05:24:44;13.10;99.90
20777;DHT22;10548;47.504;8.248;2023-08-31T05:27:11;13.10;99.90
20777;DHT22;10548;47.504;8.248;2023-08-31T05:29:38;13.10;99.90
20777;DHT22;10548;47.504;8.248;2023-08-31T05:32:06;13.00;99.90
20777;DHT22;10548;47.504;8.248;2023-08-31T05:34:33;13.00;99.90
20777;DHT22;10548;47.504;8.248;2023-08-31T05:37:05;13.00;99.90
20777;DHT22;10548;47.504;8.248;2023-08-31T05:39:32;13.10;99.90
20777;DHT22;10548;47.504;8.248;2023-08-31T05:41:59;13.30;99.90
20777;DHT22;10548;47.504;8.248;2023-08-31T05:44:28;13.30;99.90
20777;DHT22;10548;47.504;8.248;2023-08-31T05:46:55;13.40;99.90
20777;DHT22;10548;47.504;8.248;2023-08-31T05:49:22;13.40;99.90
20777;DHT22;10548;47.504;8.248;2023-08-31T05:51:50;13.50;99.90
20777;DHT22;10548;47.504;8.248;2023-08-31T05:54:17;13.50;99.90
20777;DHT22;10548;47.504;8.248;2023-08-31T05:56:45;13.60;99.90
20777;DHT22;10548;47.504;8.248;2023-08-31T05:59:12;13.70;99.90
20777;DHT22;10548;47.504;8.248;2023-08-31T06:01:39;13.70;99.90
20777;DHT22;10548;47.504;8.248;2023-08-31T06:04:06;13.90;99.90
20777;DHT22;10548;47.504;8.248;2023-08-31T06:06:33;14.00;99.90
20777;DHT22;10548;47.504;8.248;2023-08-31T06:09:00;13.90;99.90
20777;DHT22;10548;47.504;8.248;2023-08-31T06:11:28;14.00;99.90
20777;DHT22;10548;47.504;8.248;2023-08-31T06:13:55;14.10;99.90
20777;DHT22;10548;47.504;8.248;2023-08-31T06:16:22;14.20;99.90
20777;DHT22;10548;47.504;8.248;2023-08-31T06:18:51;14.30;99.90
20777;DHT22;10548;47.504;8.248;2023-08-31T06:21:18;14.40;99.90
20777;DHT22;10548;47.504;8.248;2023-08-31T06:23:45;14.40;99.90
20777;DHT22;10548;47.504;8.248;2023-08-31T06:26:12;14.30;99.90
20777;DHT22;10548;47.504;8.248;2023-08-31T06:28:40;14.40;99.90
20777;DHT22;10548;47.504;8.248;2023-08-31T06:31:07;14.50;99.90
20777;DHT22;10548;47.504;8.248;2023-08-31T06:33:34;14.60;99.90
20777;DHT22;10548;47.504;8.248;2023-08-31T06:36:01;14.60;99.90
20777;DHT22;10548;47.504;8.248;2023-08-31T06:38:28;14.60;99.90
20777;DHT22;10548;47.504;8.248;2023-08-31T06:40:55;14.80;99.90
20777;DHT22;10548;47.504;8.248;2023-08-31T06:43:26;14.80;99.90
20777;DHT22;10548;47.504;8.248;2023-08-31T06:45:56;15.00;99.90
20777;DHT22;10548;47.504;8.248;2023-08-31T06:48:36;15.00;99.90
20777;DHT22;10548;47.504;8.248;2023-08-31T06:51:03;14.90;99.90
20777;DHT22;10548;47.504;8.248;2023-08-31T06:53:30;14.90;99.90
20777;DHT22;10548;47.504;8.248;2023-08-31T06:56:00;15.00;99.90
20777;DHT22;10548;47.504;8.248;2023-08-31T06:58:28;14.90;99.90
20777;DHT22;10548;47.504;8.248;2023-08-31T07:00:55;15.00;99.90
20777;DHT22;10548;47.504;8.248;2023-08-31T07:03:22;15.10;99.90
20777;DHT22;10548;47.504;8.248;2023-08-31T07:05:53;15.00;99.90
20777;DHT22;10548;47.504;8.248;2023-08-31T07:08:21;14.90;99.90
20777;DHT22;10548;47.504;8.248;2023-08-31T07:10:50;14.90;99.90
20777;DHT22;10548;47.504;8.248;2023-08-31T07:13:17;15.20;99.90
20777;DHT22;10548;47.504;8.248;2023-08-31T07:15:44;15.30;99.90
20777;DHT22;10548;47.504;8.248;2023-08-31T07:18:11;15.10;99.90
20777;DHT22;10548;47.504;8.248;2023-08-31T07:20:39;15.30;99.90
20777;DHT22;10548;47.504;8.248;2023-08-31T07:23:06;15.20;99.90
20777;DHT22;10548;47.504;8.248;2023-08-31T07:25:33;15.20;99.90
20777;DHT22;10548;47.504;8.248;2023-08-31T07:28:00;15.40;99.90
20777;DHT22;10548;47.504;8.248;2023-08-31T07:30:27;15.50;99.90
20777;DHT22;10548;47.504;8.248;2023-08-31T07:32:56;15.50;99.90
20777;DHT22;10548;47.504;8.248;2023-08-31T07:35:24;15.40;99.90
20777;DHT22;10548;47.504;8.248;2023-08-31T07:37:51;15.30;99.90
20777;DHT22;10548;47.504;8.248;2023-08-31T07:40:18;15.30;99.90
20777;DHT22;10548;47.504;8.248;2023-08-31T07:42:45;15.40;99.90
20777;DHT22;10548;47.504;8.248;2023-08-31T07:45:12;15.50;99.90
20777;DHT22;10548;47.504;8.248;2023-08-31T07:47:39;15.80;99.90
20777;DHT22;10548;47.504;8.248;2023-08-31T07:50:07;16.00;99.90
20777;DHT22;10548;47.504;8.248;2023-08-31T07:52:34;16.00;99.90
20777;DHT22;10548;47.504;8.248;2023-08-31T07:55:01;16.10;99.90
20777;DHT22;10548;47.504;8.248;2023-08-31T07:57:29;16.10;99.90
20777;DHT22;10548;47.504;8.248;2023-08-31T07:59:56;16.30;99.90
20777;DHT22;10548;47.504;8.248;2023-08-31T08:02:23;16.60;99.90
20777;DHT22;10548;47.504;8.248;2023-08-31T08:04:50;16.50;99.90
20777;DHT22;10548;47.504;8.248;2023-08-31T08:07:18;16.40;99.90
20777;DHT22;10548;47.504;8.248;2023-08-31T08:09:45;16.10;99.90
20777;DHT22;10548;47.504;8.248;2023-08-31T08:12:12;16.40;99.90
20777;DHT22;10548;47.504;8.248;2023-08-31T08:14:39;16.30;99.90
20777;DHT22;10548;47.504;8.248;2023-08-31T08:17:06;16.30;99.90
20777;DHT22;10548;47.504;8.248;2023-08-31T08:19:33;16.30;99.90
20777;DHT22;10548;47.504;8.248;2023-08-31T08:22:00;16.30;99.90
20777;DHT22;10548;47.504;8.248;2023-08-31T08:24:27;16.30;99.90
20777;DHT22;10548;47.504;8.248;2023-08-31T08:26:55;16.50;99.90
20777;DHT22;10548;47.504;8.248;2023-08-31T08:29:22;16.40;99.90
20777;DHT22;10548;47.504;8.248;2023-08-31T08:31:49;16.60;99.90
20777;DHT22;10548;47.504;8.248;2023-08-31T08:34:16;16.70;99.90
20777;DHT22;10548;47.504;8.248;2023-08-31T08:36:43;16.90;99.90
20777;DHT22;10548;47.504;8.248;2023-08-31T08:39:10;17.10;99.90
20777;DHT22;10548;47.504;8.248;2023-08-31T08:41:38;17.00;99.90
20777;DHT22;10548;47.504;8.248;2023-08-31T08:44:07;16.90;99.90
20777;DHT22;10548;47.504;8.248;2023-08-31T08:46:35;17.10;99.90
20777;DHT22;10548;47.504;8.248;2023-08-31T08:49:03;17.10;99.90
20777;DHT22;10548;47.504;8.248;2023-08-31T08:51:32;17.20;99.90
20777;DHT22;10548;47.504;8.248;2023-08-31T08:54:00;17.10;99.90
20777;DHT22;10548;47.504;8.248;2023-08-31T08:56:27;17.10;99.90
20777;DHT22;10548;47.504;8.248;2023-08-31T08:58:54;17.10;99.90
20777;DHT22;10548;47.504;8.248;2023-08-31T09:01:22;17.60;99.90
20777;DHT22;10548;47.504;8.248;2023-08-31T09:03:50;17.70;99.90
20777;DHT22;10548;47.504;8.248;2023-08-31T09:06:18;17.80;99.90
20777;DHT22;10548;47.504;8.248;2023-08-31T09:08:55;17.80;99.90
20777;DHT22;10548;47.504;8.248;2023-08-31T09:11:24;17.70;99.90
20777;DHT22;10548;47.504;8.248;2023-08-31T09:13:51;17.50;99.90
20777;DHT22;10548;47.504;8.248;2023-08-31T09:16:26;17.70;99.90
20777;DHT22;10548;47.504;8.248;2023-08-31T09:18:53;17.80;99.90
20777;DHT22;10548;47.504;8.248;2023-08-31T09:21:22;17.50;99.90
20777;DHT22;10548;47.504;8.248;2023-08-31T09:23:57;17.80;99.90
20777;DHT22;10548;47.504;8.248;2023-08-31T09:26:25;17.40;99.90
20777;DHT22;10548;47.504;8.248;2023-08-31T09:28:52;17.40;99.90
20777;DHT22;10548;47.504;8.248;2023-08-31T09:31:19;17.20;99.90
20777;DHT22;10548;47.504;8.248;2023-08-31T09:33:51;17.20;99.90
20777;DHT22;10548;47.504;8.248;2023-08-31T09:36:20;17.10;99.90
20777;DHT22;10548;47.504;8.248;2023-08-31T09:38:48;17.00;99.90
20777;DHT22;10548;47.504;8.248;2023-08-31T09:41:15;17.00;99.90
20777;DHT22;10548;47.504;8.248;2023-08-31T09:43:43;17.20;99.90
20777;DHT22;10548;47.504;8.248;2023-08-31T09:46:10;17.50;99.90
20777;DHT22;10548;47.504;8.248;2023-08-31T09:48:39;17.70;99.90
20777;DHT22;10548;47.504;8.248;2023-08-31T09:51:09;17.60;99.90
20777;DHT22;10548;47.504;8.248;2023-08-31T09:53:37;17.30;99.90
20777;DHT22;10548;47.504;8.248;2023-08-31T09:56:05;17.40;99.90
20777;DHT22;10548;47.504;8.248;2023-08-31T09:58:33;16.90;99.90
20777;DHT22;10548;47.504;8.248;2023-08-31T10:01:01;17.20;99.90
20777;DHT22;10548;47.504;8.248;2023-08-31T10:03:32;17.30;99.90
20777;DHT22;10548;47.504;8.248;2023-08-31T10:05:59;17.10;99.90
20777;DHT22;10548;47.504;8.248;2023-08-31T10:08:27;17.30;99.90
20777;DHT22;10548;47.504;8.248;2023-08-31T10:11:01;17.40;99.90
20777;DHT22;10548;47.504;8.248;2023-08-31T10:13:32;17.70;99.90
20777;DHT22;10548;47.504;8.248;2023-08-31T10:16:05;17.70;99.90
20777;DHT22;10548;47.504;8.248;2023-08-31T10:18:34;17.70;99.90
20777;DHT22;10548;47.504;8.248;2023-08-31T10:21:02;17.70;99.90
20777;DHT22;10548;47.504;8.248;2023-08-31T10:23:31;17.90;99.90
20777;DHT22;10548;47.504;8.248;2023-08-31T10:26:00;17.90;99.90
20777;DHT22;10548;47.504;8.248;2023-08-31T10:28:27;17.90;99.90
20777;DHT22;10548;47.504;8.248;2023-08-31T10:31:21;18.00;99.90
20777;DHT22;10548;47.504;8.248;2023-08-31T10:34:05;18.10;99.90
20777;DHT22;10548;47.504;8.248;2023-08-31T10:36:40;18.40;99.90
20777;DHT22;10548;47.504;8.248;2023-08-31T10:39:17;18.40;99.90
20777;DHT22;10548;47.504;8.248;2023-08-31T10:41:54;17.50;99.90
20777;DHT22;10548;47.504;8.248;2023-08-31T10:44:26;18.00;99.90
20777;DHT22;10548;47.504;8.248;2023-08-31T10:46:54;17.80;99.90
20777;DHT22;10548;47.504;8.248;2023-08-31T10:49:22;18.00;99.90
20777;DHT22;10548;47.504;8.248;2023-08-31T10:51:54;18.10;99.90
20777;DHT22;10548;47.504;8.248;2023-08-31T10:54:23;18.00;99.90
20777;DHT22;10548;47.504;8.248;2023-08-31T10:57:04;18.00;99.90
20777;DHT22;10548;47.504;8.248;2023-08-31T10:59:51;18.10;99.90
20777;DHT22;10548;47.504;8.248;2023-08-31T11:02:37;18.40;99.90
20777;DHT22;10548;47.504;8.248;2023-08-31T11:05:15;18.20;99.90
20777;DHT22;10548;47.504;8.248;2023-08-31T11:07:46;18.10;99.90
20777;DHT22;10548;47.504;8.248;2023-08-31T11:10:25;18.00;99.90
20777;DHT22;10548;47.504;8.248;2023-08-31T11:12:55;18.10;99.90
20777;DHT22;10548;47.504;8.248;2023-08-31T11:15:25;18.10;99.90
20777;DHT22;10548;47.504;8.248;2023-08-31T11:17:56;18.20;99.90
20777;DHT22;10548;47.504;8.248;2023-08-31T11:20:24;18.00;99.90
20777;DHT22;10548;47.504;8.248;2023-08-31T11:22:56;18.10;99.90
20777;DHT22;10548;47.504;8.248;2023-08-31T11:25:23;18.20;99.90
20777;DHT22;10548;47.504;8.248;2023-08-31T11:28:10;18.20;99.90
20777;DHT22;10548;47.504;8.248;2023-08-31T11:30:38;18.30;99.90
20777;DHT22;10548;47.504;8.248;2023-08-31T11:33:06;18.50;99.90
20777;DHT22;10548;47.504;8.248;2023-08-31T11:35:39;18.90;99.90
20777;DHT22;10548;47.504;8.248;2023-08-31T11:38:09;18.90;99.90
20777;DHT22;10548;47.504;8.248;2023-08-31T11:40:37;19.00;99.80
20777;DHT22;10548;47.504;8.248;2023-08-31T11:43:04;19.00;99.90
20777;DHT22;10548;47.504;8.248;2023-08-31T11:45:33;18.50;99.80
20777;DHT22;10548;47.504;8.248;2023-08-31T11:48:01;19.00;99.90
20777;DHT22;10548;47.504;8.248;2023-08-31T11:50:30;18.90;99.90
20777;DHT22;10548;47.504;8.248;2023-08-31T11:52:58;18.80;99.90
20777;DHT22;10548;47.504;8.248;2023-08-31T11:55:25;19.00;99.90
20777;DHT22;10548;47.504;8.248;2023-08-31T11:57:53;19.10;99.90
20777;DHT22;10548;47.504;8.248;2023-08-31T12:00:24;19.20;99.90
20777;DHT22;10548;47.504;8.248;2023-08-31T12:03:01;19.20;99.30
20777;DHT22;10548;47.504;8.248;2023-08-31T12:05:29;19.00;99.90
20777;DHT22;10548;47.504;8.248;2023-08-31T12:08:11;18.60;99.90
20777;DHT22;10548;47.504;8.248;2023-08-31T12:10:41;18.50;99.50
20777;DHT22;10548;47.504;8.248;2023-08-31T12:13:11;18.50;99.90
20777;DHT22;10548;47.504;8.248;2023-08-31T12:15:42;18.40;99.80
20777;DHT22;10548;47.504;8.248;2023-08-31T12:18:13;18.50;99.90
20777;DHT22;10548;47.504;8.248;2023-08-31T12:20:49;18.70;99.90
20777;DHT22;10548;47.504;8.248;2023-08-31T12:23:20;18.70;99.90
20777;DHT22;10548;47.504;8.248;2023-08-31T12:25:54;19.00;99.90
20777;DHT22;10548;47.504;8.248;2023-08-31T12:28:23;18.60;99.90
20777;DHT22;10548;47.504;8.248;2023-08-31T12:30:54;18.70;99.90
20777;DHT22;10548;47.504;8.248;2023-08-31T12:33:23;18.80;98.90
20777;DHT22;10548;47.504;8.248;2023-08-31T12:35:51;19.00;99.90
20777;DHT22;10548;47.504;8.248;2023-08-31T12:38:18;19.10;99.90
20777;DHT22;10548;47.504;8.248;2023-08-31T12:40:46;18.90;99.60
20777;DHT22;10548;47.504;8.248;2023-08-31T12:43:13;19.30;99.90
20777;DHT22;10548;47.504;8.248;2023-08-31T12:45:43;19.70;99.00
20777;DHT22;10548;47.504;8.248;2023-08-31T12:48:10;19.40;98.10
20777;DHT22;10548;47.504;8.248;2023-08-31T12:50:38;19.90;98.00
20777;DHT22;10548;47.504;8.248;2023-08-31T12:53:05;19.90;97.80
20777;DHT22;10548;47.504;8.248;2023-08-31T12:55:32;19.30;99.20
20777;DHT22;10548;47.504;8.248;2023-08-31T12:57:59;18.90;97.30
20777;DHT22;10548;47.504;8.248;2023-08-31T13:00:26;18.70;98.70
20777;DHT22;10548;47.504;8.248;2023-08-31T13:02:54;18.80;98.00
20777;DHT22;10548;47.504;8.248;2023-08-31T13:05:22;18.60;99.90
20777;DHT22;10548;47.504;8.248;2023-08-31T13:07:49;18.60;98.50
20777;DHT22;10548;47.504;8.248;2023-08-31T13:10:16;18.60;98.10
20777;DHT22;10548;47.504;8.248;2023-08-31T13:12:43;18.70;99.00
20777;DHT22;10548;47.504;8.248;2023-08-31T13:15:10;19.00;99.00
20777;DHT22;10548;47.504;8.248;2023-08-31T13:17:38;19.20;97.40
20777;DHT22;10548;47.504;8.248;2023-08-31T13:20:05;19.50;97.90
20777;DHT22;10548;47.504;8.248;2023-08-31T13:22:33;19.40;97.20
20777;DHT22;10548;47.504;8.248;2023-08-31T13:25:00;19.20;97.00
20777;DHT22;10548;47.504;8.248;2023-08-31T13:27:27;19.10;97.70
20777;DHT22;10548;47.504;8.248;2023-08-31T13:29:54;19.00;98.80
20777;DHT22;10548;47.504;8.248;2023-08-31T13:32:21;19.00;99.90
20777;DHT22;10548;47.504;8.248;2023-08-31T13:34:48;19.00;99.30
20777;DHT22;10548;47.504;8.248;2023-08-31T13:37:15;19.20;99.90
20777;DHT22;10548;47.504;8.248;2023-08-31T13:39:43;19.20;99.90
20777;DHT22;10548;47.504;8.248;2023-08-31T13:42:10;19.10;97.40
20777;DHT22;10548;47.504;8.248;2023-08-31T13:44:37;18.90;97.80
20777;DHT22;10548;47.504;8.248;2023-08-31T13:47:04;18.90;99.70
20777;DHT22;10548;47.504;8.248;2023-08-31T13:49:32;19.50;99.90
20777;DHT22;10548;47.504;8.248;2023-08-31T13:52:00;19.70;98.90
20777;DHT22;10548;47.504;8.248;2023-08-31T13:54:27;19.60;97.10
20777;DHT22;10548;47.504;8.248;2023-08-31T13:56:54;19.60;98.40
20777;DHT22;10548;47.504;8.248;2023-08-31T13:59:21;19.70;96.80
20777;DHT22;10548;47.504;8.248;2023-08-31T14:01:48;19.40;98.70
20777;DHT22;10548;47.504;8.248;2023-08-31T14:04:16;19.30;98.20
20777;DHT22;10548;47.504;8.248;2023-08-31T14:06:43;19.60;96.20
20777;DHT22;10548;47.504;8.248;2023-08-31T14:09:10;19.50;96.10
20777;DHT22;10548;47.504;8.248;2023-08-31T14:11:38;19.20;96.60
20777;DHT22;10548;47.504;8.248;2023-08-31T14:14:06;19.50;95.80
20777;DHT22;10548;47.504;8.248;2023-08-31T14:16:38;19.70;95.80
20777;DHT22;10548;47.504;8.248;2023-08-31T14:19:05;19.80;95.90
20777;DHT22;10548;47.504;8.248;2023-08-31T14:21:32;20.10;95.40
20777;DHT22;10548;47.504;8.248;2023-08-31T14:24:00;19.80;96.70
20777;DHT22;10548;47.504;8.248;2023-08-31T14:26:27;19.40;98.40
20777;DHT22;10548;47.504;8.248;2023-08-31T14:28:54;19.10;97.30
20777;DHT22;10548;47.504;8.248;2023-08-31T14:31:21;19.10;97.00
20777;DHT22;10548;47.504;8.248;2023-08-31T14:33:49;19.00;95.30
20777;DHT22;10548;47.504;8.248;2023-08-31T14:36:17;18.90;97.20
20777;DHT22;10548;47.504;8.248;2023-08-31T14:38:44;19.20;97.10
20777;DHT22;10548;47.504;8.248;2023-08-31T14:41:12;19.10;96.40
20777;DHT22;10548;47.504;8.248;2023-08-31T14:43:39;18.80;97.00
20777;DHT22;10548;47.504;8.248;2023-08-31T14:46:06;19.00;97.20
20777;DHT22;10548;47.504;8.248;2023-08-31T14:48:34;19.30;95.50
20777;DHT22;10548;47.504;8.248;2023-08-31T14:51:01;19.30;95.30
20777;DHT22;10548;47.504;8.248;2023-08-31T14:53:28;19.00;95.30
20777;DHT22;10548;47.504;8.248;2023-08-31T14:55:55;18.80;95.90
20777;DHT22;10548;47.504;8.248;2023-08-31T14:58:22;18.80;95.30
20777;DHT22;10548;47.504;8.248;2023-08-31T15:00:49;18.80;94.90
20777;DHT22;10548;47.504;8.248;2023-08-31T15:03:17;18.90;95.50
20777;DHT22;10548;47.504;8.248;2023-08-31T15:05:47;19.00;94.10
20777;DHT22;10548;47.504;8.248;2023-08-31T15:08:14;19.10;94.20
20777;DHT22;10548;47.504;8.248;2023-08-31T15:10:42;19.30;95.20
20777;DHT22;10548;47.504;8.248;2023-08-31T15:13:09;19.20;96.40
20777;DHT22;10548;47.504;8.248;2023-08-31T15:15:36;18.90;95.90
20777;DHT22;10548;47.504;8.248;2023-08-31T15:18:04;18.90;97.20
20777;DHT22;10548;47.504;8.248;2023-08-31T15:20:32;18.80;95.90
20777;DHT22;10548;47.504;8.248;2023-08-31T15:22:59;18.80;98.10
20777;DHT22;10548;47.504;8.248;2023-08-31T15:25:26;18.90;96.80
20777;DHT22;10548;47.504;8.248;2023-08-31T15:27:53;19.10;97.70
20777;DHT22;10548;47.504;8.248;2023-08-31T15:30:20;19.10;96.40
20777;DHT22;10548;47.504;8.248;2023-08-31T15:32:49;19.20;96.80
20777;DHT22;10548;47.504;8.248;2023-08-31T15:35:16;19.00;96.00
20777;DHT22;10548;47.504;8.248;2023-08-31T15:37:43;19.00;97.90
20777;DHT22;10548;47.504;8.248;2023-08-31T15:40:14;19.20;97.30
20777;DHT22;10548;47.504;8.248;2023-08-31T15:42:41;19.20;98.10